sensor_id;sensor_type;location;lat;lon;timestamp;P1;durP1;ratioP1;P2;durP2;ratioP2
6033;SDS011;3045;43.226;27.858;2023-02-01T00:00:18;10.67;;;9.67;;
6033;SDS011;3045;43.226;27.858;2023-02-01T00:02:46;11.73;;;10.77;;
6033;SDS011;3045;43.226;27.858;2023-02-01T00:05:13;11.17;;;10.30;;
6033;SDS011;3045;43.226;27.858;2023-02-01T00:07:40;10.83;;;9.97;;
6033;SDS011;3045;43.226;27.858;2023-02-01T00:10:07;11.67;;;10.67;;
6033;SDS011;3045;43.226;27.858;2023-02-01T00:12:35;12.07;;;10.97;;
6033;SDS011;3045;43.226;27.858;2023-02-01T00:15:02;12.40;;;11.20;;
6033;SDS011;3045;43.226;27.858;2023-02-01T00:17:29;10.90;;;9.93;;
6033;SDS011;3045;43.226;27.858;2023-02-01T00:19:57;11.97;;;10.60;;
6033;SDS011;3045;43.226;27.858;2023-02-01T00:22:24;12.60;;;11.27;;
6033;SDS011;3045;43.226;27.858;2023-02-01T00:24:51;12.33;;;11.13;;
6033;SDS011;3045;43.226;27.858;2023-02-01T00:27:18;10.83;;;10.00;;
6033;SDS011;3045;43.226;27.858;2023-02-01T00:29:46;12.40;;;10.83;;
6033;SDS011;3045;43.226;27.858;2023-02-01T00:32:13;11.20;;;10.23;;
6033;SDS011;3045;43.226;27.858;2023-02-01T00:34:40;12.67;;;11.37;;
6033;SDS011;3045;43.226;27.858;2023-02-01T00:37:08;11.50;;;10.50;;
6033;SDS011;3045;43.226;27.858;2023-02-01T00:39:35;10.63;;;9.80;;
6033;SDS011;3045;43.226;27.858;2023-02-01T00:42:02;10.70;;;9.80;;
6033;SDS011;3045;43.226;27.858;2023-02-01T00:44:29;10.77;;;9.80;;
6033;SDS011;3045;43.226;27.858;2023-02-01T00:46:59;10.47;;;9.57;;
6033;SDS011;3045;43.226;27.858;2023-02-01T00:49:26;10.87;;;9.97;;
6033;SDS011;3045;43.226;27.858;2023-02-01T00:51:53;10.67;;;9.77;;
6033;SDS011;3045;43.226;27.858;2023-02-01T00:54:21;9.93;;;9.23;;
6033;SDS011;3045;43.226;27.858;2023-02-01T00:56:48;9.00;;;8.40;;
6033;SDS011;3045;43.226;27.858;2023-02-01T00:59:15;9.87;;;8.90;;
6033;SDS011;3045;43.226;27.858;2023-02-01T01:01:42;10.20;;;9.50;;
6033;SDS011;3045;43.226;27.858;2023-02-01T01:04:09;10.23;;;9.40;;
6033;SDS011;3045;43.226;27.858;2023-02-01T01:06:36;9.80;;;9.20;;
6033;SDS011;3045;43.226;27.858;2023-02-01T01:09:04;9.70;;;9.07;;
6033;SDS011;3045;43.226;27.858;2023-02-01T01:11:35;10.80;;;9.77;;
6033;SDS011;3045;43.226;27.858;2023-02-01T01:14:04;10.70;;;9.83;;
6033;SDS011;3045;43.226;27.858;2023-02-01T01:16:32;10.10;;;9.40;;
6033;SDS011;3045;43.226;27.858;2023-02-01T01:19:00;10.70;;;10.00;;
6033;SDS011;3045;43.226;27.858;2023-02-01T01:21:27;10.97;;;10.10;;
6033;SDS011;3045;43.226;27.858;2023-02-01T01:23:55;11.53;;;10.63;;
6033;SDS011;3045;43.226;27.858;2023-02-01T01:26:23;10.80;;;9.97;;
6033;SDS011;3045;43.226;27.858;2023-02-01T01:28:52;10.90;;;10.10;;
6033;SDS011;3045;43.226;27.858;2023-02-01T01:31:21;11.07;;;10.20;;
6033;SDS011;3045;43.226;27.858;2023-02-01T01:33:49;11.83;;;10.67;;
6033;SDS011;3045;43.226;27.858;2023-02-01T01:36:17;12.40;;;11.27;;
6033;SDS011;3045;43.226;27.858;2023-02-01T01:38:44;13.10;;;10.80;;
6033;SDS011;3045;43.226;27.858;2023-02-01T01:41:12;11.77;;;10.77;;
6033;SDS011;3045;43.226;27.858;2023-02-01T01:43:46;11.13;;;10.03;;
6033;SDS011;3045;43.226;27.858;2023-02-01T01:46:17;10.80;;;9.87;;
6033;SDS011;3045;43.226;27.858;2023-02-01T01:48:45;12.33;;;10.90;;
6033;SDS011;3045;43.226;27.858;2023-02-01T01:51:14;10.93;;;10.00;;
6033;SDS011;3045;43.226;27.858;2023-02-01T01:53:48;11.40;;;10.40;;
6033;SDS011;3045;43.226;27.858;2023-02-01T01:56:22;10.87;;;9.97;;
6033;SDS011;3045;43.226;27.858;2023-02-01T01:58:49;11.60;;;10.50;;
6033;SDS011;3045;43.226;27.858;2023-02-01T02:01:17;12.13;;;10.90;;
6033;SDS011;3045;43.226;27.858;2023-02-01T02:03:45;12.60;;;11.40;;
6033;SDS011;3045;43.226;27.858;2023-02-01T02:06:16;11.50;;;10.57;;
6033;SDS011;3045;43.226;27.858;2023-02-01T02:08:51;12.17;;;11.07;;
6033;SDS011;3045;43.226;27.858;2023-02-01T02:11:18;12.30;;;11.43;;
6033;SDS011;3045;43.226;27.858;2023-02-01T02:13:46;11.57;;;10.50;;
6033;SDS011;3045;43.226;27.858;2023-02-01T02:22:36;10.63;;;9.73;;
6033;SDS011;3045;43.226;27.858;2023-02-01T02:28:35;11.53;;;10.63;;
6033;SDS011;3045;43.226;27.858;2023-02-01T02:31:32;11.37;;;10.53;;
6033;SDS011;3045;43.226;27.858;2023-02-01T02:34:12;12.57;;;11.37;;
6033;SDS011;3045;43.226;27.858;2023-02-01T02:36:48;12.47;;;11.10;;
6033;SDS011;3045;43.226;27.858;2023-02-01T02:39:24;11.73;;;10.63;;
6033;SDS011;3045;43.226;27.858;2023-02-01T02:42:01;11.67;;;10.60;;
6033;SDS011;3045;43.226;27.858;2023-02-01T02:44:53;13.00;;;11.67;;
6033;SDS011;3045;43.226;27.858;2023-02-01T02:47:42;11.57;;;10.50;;
6033;SDS011;3045;43.226;27.858;2023-02-01T02:50:18;13.17;;;11.70;;
6033;SDS011;3045;43.226;27.858;2023-02-01T02:53:12;12.53;;;10.77;;
6033;SDS011;3045;43.226;27.858;2023-02-01T02:55:59;11.67;;;10.53;;
6033;SDS011;3045;43.226;27.858;2023-02-01T02:58:45;12.60;;;11.33;;
6033;SDS011;3045;43.226;27.858;2023-02-01T03:01:34;12.40;;;10.57;;
6033;SDS011;3045;43.226;27.858;2023-02-01T03:04:18;11.67;;;10.67;;
6033;SDS011;3045;43.226;27.858;2023-02-01T03:06:47;13.03;;;11.83;;
6033;SDS011;3045;43.226;27.858;2023-02-01T03:09:16;12.67;;;11.37;;
6033;SDS011;3045;43.226;27.858;2023-02-01T03:11:49;12.40;;;11.20;;
6033;SDS011;3045;43.226;27.858;2023-02-01T03:14:38;12.33;;;11.10;;
6033;SDS011;3045;43.226;27.858;2023-02-01T03:17:11;12.13;;;11.03;;
6033;SDS011;3045;43.226;27.858;2023-02-01T03:19:41;12.57;;;11.37;;
6033;SDS011;3045;43.226;27.858;2023-02-01T03:22:15;12.93;;;10.07;;
6033;SDS011;3045;43.226;27.858;2023-02-01T03:24:47;11.50;;;10.57;;
6033;SDS011;3045;43.226;27.858;2023-02-01T03:27:18;12.60;;;11.50;;
6033;SDS011;3045;43.226;27.858;2023-02-01T03:29:49;12.23;;;11.17;;
6033;SDS011;3045;43.226;27.858;2023-02-01T03:32:21;13.40;;;12.10;;
6033;SDS011;3045;43.226;27.858;2023-02-01T03:34:49;14.87;;;12.63;;
6033;SDS011;3045;43.226;27.858;2023-02-01T03:37:21;13.70;;;12.47;;
6033;SDS011;3045;43.226;27.858;2023-02-01T03:39:52;13.83;;;12.40;;
6033;SDS011;3045;43.226;27.858;2023-02-01T03:42:24;14.80;;;13.30;;
6033;SDS011;3045;43.226;27.858;2023-02-01T03:44:58;14.53;;;13.00;;
6033;SDS011;3045;43.226;27.858;2023-02-01T03:47:30;14.13;;;12.83;;
6033;SDS011;3045;43.226;27.858;2023-02-01T03:50:02;19.67;;;14.13;;
6033;SDS011;3045;43.226;27.858;2023-02-01T03:52:34;18.23;;;14.93;;
6033;SDS011;3045;43.226;27.858;2023-02-01T03:55:06;16.57;;;14.83;;
6033;SDS011;3045;43.226;27.858;2023-02-01T03:57:35;15.83;;;14.07;;
6033;SDS011;3045;43.226;27.858;2023-02-01T04:00:07;20.97;;;14.80;;
6033;SDS011;3045;43.226;27.858;2023-02-01T04:02:36;15.87;;;13.10;;
6033;SDS011;3045;43.226;27.858;2023-02-01T04:05:03;15.20;;;13.70;;
6033;SDS011;3045;43.226;27.858;2023-02-01T04:07:31;15.73;;;13.43;;
6033;SDS011;3045;43.226;27.858;2023-02-01T04:09:59;14.17;;;12.77;;
6033;SDS011;3045;43.226;27.858;2023-02-01T04:12:26;16.00;;;13.50;;
6033;SDS011;3045;43.226;27.858;2023-02-01T04:14:53;15.60;;;13.63;;
6033;SDS011;3045;43.226;27.858;2023-02-01T04:17:20;14.10;;;12.80;;
6033;SDS011;3045;43.226;27.858;2023-02-01T04:19:47;15.83;;;14.00;;
6033;SDS011;3045;43.226;27.858;2023-02-01T04:22:13;15.67;;;13.43;;
6033;SDS011;3045;43.226;27.858;2023-02-01T04:24:42;14.97;;;12.63;;
6033;SDS011;3045;43.226;27.858;2023-02-01T04:27:08;15.77;;;13.03;;
6033;SDS011;3045;43.226;27.858;2023-02-01T04:29:35;13.63;;;12.23;;
6033;SDS011;3045;43.226;27.858;2023-02-01T04:32:02;13.80;;;12.40;;
6033;SDS011;3045;43.226;27.858;2023-02-01T04:34:30;14.20;;;12.70;;
6033;SDS011;3045;43.226;27.858;2023-02-01T04:36:57;12.67;;;11.57;;
6033;SDS011;3045;43.226;27.858;2023-02-01T04:39:23;14.20;;;12.70;;
6033;SDS011;3045;43.226;27.858;2023-02-01T04:41:52;14.27;;;12.47;;
6033;SDS011;3045;43.226;27.858;2023-02-01T04:44:19;16.10;;;12.20;;
6033;SDS011;3045;43.226;27.858;2023-02-01T04:46:46;14.37;;;12.37;;
6033;SDS011;3045;43.226;27.858;2023-02-01T04:49:13;15.27;;;12.70;;
6033;SDS011;3045;43.226;27.858;2023-02-01T04:51:41;13.57;;;12.23;;
6033;SDS011;3045;43.226;27.858;2023-02-01T04:54:09;20.60;;;13.70;;
6033;SDS011;3045;43.226;27.858;2023-02-01T04:56:36;19.17;;;14.37;;
6033;SDS011;3045;43.226;27.858;2023-02-01T04:59:05;16.53;;;13.93;;
6033;SDS011;3045;43.226;27.858;2023-02-01T05:01:32;15.57;;;13.60;;
6033;SDS011;3045;43.226;27.858;2023-02-01T05:03:59;15.27;;;13.17;;
6033;SDS011;3045;43.226;27.858;2023-02-01T05:06:26;17.87;;;13.40;;
6033;SDS011;3045;43.226;27.858;2023-02-01T05:08:53;14.27;;;12.80;;
6033;SDS011;3045;43.226;27.858;2023-02-01T05:11:20;15.70;;;12.93;;
6033;SDS011;3045;43.226;27.858;2023-02-01T05:14:06;14.70;;;13.20;;
6033;SDS011;3045;43.226;27.858;2023-02-01T05:16:33;15.03;;;13.23;;
6033;SDS011;3045;43.226;27.858;2023-02-01T05:19:00;17.53;;;13.87;;
6033;SDS011;3045;43.226;27.858;2023-02-01T05:21:26;15.10;;;13.33;;
6033;SDS011;3045;43.226;27.858;2023-02-01T05:23:53;14.83;;;12.90;;
6033;SDS011;3045;43.226;27.858;2023-02-01T05:26:35;15.33;;;13.83;;
6033;SDS011;3045;43.226;27.858;2023-02-01T05:29:03;14.83;;;13.23;;
6033;SDS011;3045;43.226;27.858;2023-02-01T05:31:31;15.27;;;13.77;;
6033;SDS011;3045;43.226;27.858;2023-02-01T05:33:58;15.20;;;13.60;;
6033;SDS011;3045;43.226;27.858;2023-02-01T05:36:25;14.07;;;12.77;;
6033;SDS011;3045;43.226;27.858;2023-02-01T05:38:52;15.40;;;11.23;;
6033;SDS011;3045;43.226;27.858;2023-02-01T05:41:19;16.23;;;12.27;;
6033;SDS011;3045;43.226;27.858;2023-02-01T05:43:46;14.17;;;12.77;;
6033;SDS011;3045;43.226;27.858;2023-02-01T05:46:13;14.00;;;12.60;;
6033;SDS011;3045;43.226;27.858;2023-02-01T05:48:41;14.20;;;12.73;;
6033;SDS011;3045;43.226;27.858;2023-02-01T05:51:09;14.37;;;12.87;;
6033;SDS011;3045;43.226;27.858;2023-02-01T05:53:37;14.33;;;12.90;;
6033;SDS011;3045;43.226;27.858;2023-02-01T05:56:04;16.03;;;12.20;;
6033;SDS011;3045;43.226;27.858;2023-02-01T05:58:31;20.90;;;13.47;;
6033;SDS011;3045;43.226;27.858;2023-02-01T06:00:59;16.37;;;14.47;;
6033;SDS011;3045;43.226;27.858;2023-02-01T06:03:26;16.97;;;13.13;;
6033;SDS011;3045;43.226;27.858;2023-02-01T06:05:54;14.73;;;13.30;;
6033;SDS011;3045;43.226;27.858;2023-02-01T06:08:21;14.83;;;13.10;;
6033;SDS011;3045;43.226;27.858;2023-02-01T06:10:50;13.43;;;12.10;;
6033;SDS011;3045;43.226;27.858;2023-02-01T06:13:18;14.07;;;12.73;;
6033;SDS011;3045;43.226;27.858;2023-02-01T06:15:45;16.07;;;12.83;;
6033;SDS011;3045;43.226;27.858;2023-02-01T06:18:12;13.43;;;12.30;;
6033;SDS011;3045;43.226;27.858;2023-02-01T06:20:40;14.73;;;12.67;;
6033;SDS011;3045;43.226;27.858;2023-02-01T06:23:09;13.27;;;12.00;;
6033;SDS011;3045;43.226;27.858;2023-02-01T06:25:35;18.00;;;12.53;;
6033;SDS011;3045;43.226;27.858;2023-02-01T06:28:02;12.90;;;11.30;;
6033;SDS011;3045;43.226;27.858;2023-02-01T06:30:30;16.60;;;12.00;;
6033;SDS011;3045;43.226;27.858;2023-02-01T06:32:58;17.10;;;10.93;;
6033;SDS011;3045;43.226;27.858;2023-02-01T06:35:25;11.80;;;10.97;;
6033;SDS011;3045;43.226;27.858;2023-02-01T06:37:52;12.90;;;11.80;;
6033;SDS011;3045;43.226;27.858;2023-02-01T06:40:20;13.97;;;11.87;;
6033;SDS011;3045;43.226;27.858;2023-02-01T06:42:48;12.10;;;11.00;;
6033;SDS011;3045;43.226;27.858;2023-02-01T06:45:15;11.80;;;10.93;;
6033;SDS011;3045;43.226;27.858;2023-02-01T06:47:42;13.60;;;11.37;;
6033;SDS011;3045;43.226;27.858;2023-02-01T06:50:09;11.53;;;10.13;;
6033;SDS011;3045;43.226;27.858;2023-02-01T06:52:38;11.00;;;10.10;;
6033;SDS011;3045;43.226;27.858;2023-02-01T06:55:05;10.17;;;9.43;;
6033;SDS011;3045;43.226;27.858;2023-02-01T06:57:34;10.83;;;9.90;;
6033;SDS011;3045;43.226;27.858;2023-02-01T07:00:02;10.23;;;8.33;;
6033;SDS011;3045;43.226;27.858;2023-02-01T07:02:30;9.67;;;9.07;;
6033;SDS011;3045;43.226;27.858;2023-02-01T07:04:57;10.00;;;9.20;;
6033;SDS011;3045;43.226;27.858;2023-02-01T07:07:24;9.27;;;8.53;;
6033;SDS011;3045;43.226;27.858;2023-02-01T07:09:51;8.03;;;7.63;;
6033;SDS011;3045;43.226;27.858;2023-02-01T07:12:18;8.63;;;8.13;;
6033;SDS011;3045;43.226;27.858;2023-02-01T07:14:47;9.57;;;8.47;;
6033;SDS011;3045;43.226;27.858;2023-02-01T07:17:14;8.83;;;8.23;;
6033;SDS011;3045;43.226;27.858;2023-02-01T07:19:41;9.57;;;8.83;;
6033;SDS011;3045;43.226;27.858;2023-02-01T07:22:08;8.83;;;8.00;;
6033;SDS011;3045;43.226;27.858;2023-02-01T07:24:34;8.40;;;7.87;;
6033;SDS011;3045;43.226;27.858;2023-02-01T07:27:02;8.30;;;7.90;;
6033;SDS011;3045;43.226;27.858;2023-02-01T07:29:28;8.20;;;7.80;;
6033;SDS011;3045;43.226;27.858;2023-02-01T07:31:57;7.80;;;7.30;;
6033;SDS011;3045;43.226;27.858;2023-02-01T07:34:25;7.37;;;7.03;;
6033;SDS011;3045;43.226;27.858;2023-02-01T07:36:52;7.97;;;7.37;;
6033;SDS011;3045;43.226;27.858;2023-02-01T07:39:19;7.23;;;6.83;;
6033;SDS011;3045;43.226;27.858;2023-02-01T07:41:46;7.90;;;7.50;;
6033;SDS011;3045;43.226;27.858;2023-02-01T07:44:13;9.00;;;8.50;;
6033;SDS011;3045;43.226;27.858;2023-02-01T07:46:40;11.70;;;10.50;;
6033;SDS011;3045;43.226;27.858;2023-02-01T07:49:09;13.80;;;12.60;;
6033;SDS011;3045;43.226;27.858;2023-02-01T07:51:38;14.47;;;12.57;;
6033;SDS011;3045;43.226;27.858;2023-02-01T07:54:08;13.90;;;12.70;;
6033;SDS011;3045;43.226;27.858;2023-02-01T07:56:36;13.13;;;12.20;;
6033;SDS011;3045;43.226;27.858;2023-02-01T07:59:03;12.60;;;11.67;;
6033;SDS011;3045;43.226;27.858;2023-02-01T08:01:31;12.40;;;11.20;;
6033;SDS011;3045;43.226;27.858;2023-02-01T08:03:58;9.60;;;8.77;;
6033;SDS011;3045;43.226;27.858;2023-02-01T08:06:29;7.90;;;7.10;;
6033;SDS011;3045;43.226;27.858;2023-02-01T08:08:57;7.33;;;6.83;;
6033;SDS011;3045;43.226;27.858;2023-02-01T08:11:24;7.20;;;6.60;;
6033;SDS011;3045;43.226;27.858;2023-02-01T08:13:52;7.43;;;6.83;;
6033;SDS011;3045;43.226;27.858;2023-02-01T08:16:21;9.60;;;6.83;;
6033;SDS011;3045;43.226;27.858;2023-02-01T08:18:49;8.43;;;7.47;;
6033;SDS011;3045;43.226;27.858;2023-02-01T08:21:17;7.43;;;6.80;;
6033;SDS011;3045;43.226;27.858;2023-02-01T08:23:46;8.23;;;7.47;;
6033;SDS011;3045;43.226;27.858;2023-02-01T08:26:17;10.50;;;7.67;;
6033;SDS011;3045;43.226;27.858;2023-02-01T08:28:47;7.50;;;6.90;;
6033;SDS011;3045;43.226;27.858;2023-02-01T08:31:17;8.13;;;7.43;;
6033;SDS011;3045;43.226;27.858;2023-02-01T08:33:48;7.77;;;7.20;;
6033;SDS011;3045;43.226;27.858;2023-02-01T08:36:17;6.90;;;6.40;;
6033;SDS011;3045;43.226;27.858;2023-02-01T08:38:44;8.00;;;5.77;;
6033;SDS011;3045;43.226;27.858;2023-02-01T08:41:13;5.60;;;5.10;;
6033;SDS011;3045;43.226;27.858;2023-02-01T08:43:42;6.40;;;6.00;;
6033;SDS011;3045;43.226;27.858;2023-02-01T08:46:13;8.30;;;7.63;;
6033;SDS011;3045;43.226;27.858;2023-02-01T08:48:40;10.63;;;8.87;;
6033;SDS011;3045;43.226;27.858;2023-02-01T08:51:08;10.30;;;9.43;;
6033;SDS011;3045;43.226;27.858;2023-02-01T08:53:36;14.73;;;9.10;;
6033;SDS011;3045;43.226;27.858;2023-02-01T08:56:05;10.23;;;9.23;;
6033;SDS011;3045;43.226;27.858;2023-02-01T08:58:34;11.60;;;10.40;;
6033;SDS011;3045;43.226;27.858;2023-02-01T09:01:02;12.10;;;9.97;;
6033;SDS011;3045;43.226;27.858;2023-02-01T09:03:32;11.00;;;10.17;;
6033;SDS011;3045;43.226;27.858;2023-02-01T09:05:59;11.40;;;10.27;;
6033;SDS011;3045;43.226;27.858;2023-02-01T09:08:27;12.13;;;10.23;;
6033;SDS011;3045;43.226;27.858;2023-02-01T09:10:57;11.43;;;10.30;;
6033;SDS011;3045;43.226;27.858;2023-02-01T09:13:25;10.40;;;9.77;;
6033;SDS011;3045;43.226;27.858;2023-02-01T09:15:53;8.67;;;8.07;;
6033;SDS011;3045;43.226;27.858;2023-02-01T09:18:20;10.70;;;9.00;;
6033;SDS011;3045;43.226;27.858;2023-02-01T09:20:47;9.00;;;7.73;;
6033;SDS011;3045;43.226;27.858;2023-02-01T09:23:14;9.87;;;7.40;;
6033;SDS011;3045;43.226;27.858;2023-02-01T09:25:41;8.17;;;6.37;;
6033;SDS011;3045;43.226;27.858;2023-02-01T09:28:10;11.37;;;6.13;;
6033;SDS011;3045;43.226;27.858;2023-02-01T09:30:37;10.77;;;5.97;;
6033;SDS011;3045;43.226;27.858;2023-02-01T09:33:08;6.13;;;5.80;;
6033;SDS011;3045;43.226;27.858;2023-02-01T09:35:35;6.60;;;6.07;;
6033;SDS011;3045;43.226;27.858;2023-02-01T09:38:03;7.07;;;6.00;;
6033;SDS011;3045;43.226;27.858;2023-02-01T09:40:30;6.93;;;5.70;;
6033;SDS011;3045;43.226;27.858;2023-02-01T09:43:09;6.47;;;5.90;;
6033;SDS011;3045;43.226;27.858;2023-02-01T09:45:44;6.80;;;6.10;;
6033;SDS011;3045;43.226;27.858;2023-02-01T09:48:19;6.20;;;5.90;;
6033;SDS011;3045;43.226;27.858;2023-02-01T09:50:52;7.10;;;6.63;;
6033;SDS011;3045;43.226;27.858;2023-02-01T09:53:23;7.97;;;7.07;;
6033;SDS011;3045;43.226;27.858;2023-02-01T09:55:54;8.40;;;7.57;;
6033;SDS011;3045;43.226;27.858;2023-02-01T09:58:25;7.87;;;7.07;;
6033;SDS011;3045;43.226;27.858;2023-02-01T10:00:59;6.73;;;6.33;;
6033;SDS011;3045;43.226;27.858;2023-02-01T10:03:29;6.43;;;6.13;;
6033;SDS011;3045;43.226;27.858;2023-02-01T10:06:05;6.33;;;5.93;;
6033;SDS011;3045;43.226;27.858;2023-02-01T10:09:07;5.50;;;5.17;;
6033;SDS011;3045;43.226;27.858;2023-02-01T10:11:50;4.93;;;4.73;;
6033;SDS011;3045;43.226;27.858;2023-02-01T10:14:35;5.00;;;4.63;;
6033;SDS011;3045;43.226;27.858;2023-02-01T10:17:23;5.57;;;5.03;;
6033;SDS011;3045;43.226;27.858;2023-02-01T10:20:08;5.53;;;4.97;;
6033;SDS011;3045;43.226;27.858;2023-02-01T10:22:44;5.47;;;4.80;;
6033;SDS011;3045;43.226;27.858;2023-02-01T10:25:14;9.37;;;5.03;;
6033;SDS011;3045;43.226;27.858;2023-02-01T10:27:49;5.57;;;5.33;;
6033;SDS011;3045;43.226;27.858;2023-02-01T10:30:18;7.63;;;6.97;;
6033;SDS011;3045;43.226;27.858;2023-02-01T10:32:47;6.83;;;5.60;;
6033;SDS011;3045;43.226;27.858;2023-02-01T10:35:18;9.43;;;6.43;;
6033;SDS011;3045;43.226;27.858;2023-02-01T10:37:51;6.23;;;5.87;;
6033;SDS011;3045;43.226;27.858;2023-02-01T10:40:19;8.10;;;5.90;;
6033;SDS011;3045;43.226;27.858;2023-02-01T10:42:48;7.13;;;5.10;;
6033;SDS011;3045;43.226;27.858;2023-02-01T10:45:17;5.00;;;4.50;;
6033;SDS011;3045;43.226;27.858;2023-02-01T10:47:47;8.20;;;4.70;;
6033;SDS011;3045;43.226;27.858;2023-02-01T10:50:23;4.97;;;4.57;;
6033;SDS011;3045;43.226;27.858;2023-02-01T10:53:00;6.40;;;4.73;;
6033;SDS011;3045;43.226;27.858;2023-02-01T10:55:33;6.07;;;5.47;;
6033;SDS011;3045;43.226;27.858;2023-02-01T10:58:04;4.87;;;4.37;;
6033;SDS011;3045;43.226;27.858;2023-02-01T11:00:34;4.83;;;4.57;;
6033;SDS011;3045;43.226;27.858;2023-02-01T11:06:01;4.63;;;4.43;;
6033;SDS011;3045;43.226;27.858;2023-02-01T11:08:29;4.87;;;4.40;;
6033;SDS011;3045;43.226;27.858;2023-02-01T11:10:57;4.97;;;4.13;;
6033;SDS011;3045;43.226;27.858;2023-02-01T11:13:28;6.40;;;4.70;;
6033;SDS011;3045;43.226;27.858;2023-02-01T11:15:58;4.13;;;3.70;;
6033;SDS011;3045;43.226;27.858;2023-02-01T11:18:28;5.00;;;4.27;;
6033;SDS011;3045;43.226;27.858;2023-02-01T11:20:57;4.97;;;4.63;;
6033;SDS011;3045;43.226;27.858;2023-02-01T11:23:27;4.53;;;4.33;;
6033;SDS011;3045;43.226;27.858;2023-02-01T11:25:59;3.90;;;3.80;;
6033;SDS011;3045;43.226;27.858;2023-02-01T11:28:28;4.27;;;3.97;;
6033;SDS011;3045;43.226;27.858;2023-02-01T11:30:59;4.07;;;3.87;;
6033;SDS011;3045;43.226;27.858;2023-02-01T11:33:29;3.70;;;3.43;;
6033;SDS011;3045;43.226;27.858;2023-02-01T11:36:00;4.17;;;3.40;;
6033;SDS011;3045;43.226;27.858;2023-02-01T11:38:34;5.30;;;3.20;;
6033;SDS011;3045;43.226;27.858;2023-02-01T11:41:11;8.03;;;3.40;;
6033;SDS011;3045;43.226;27.858;2023-02-01T11:43:49;3.57;;;3.27;;
6033;SDS011;3045;43.226;27.858;2023-02-01T11:46:24;3.40;;;3.10;;
6033;SDS011;3045;43.226;27.858;2023-02-01T11:48:55;4.03;;;3.83;;
6033;SDS011;3045;43.226;27.858;2023-02-01T11:51:42;8.00;;;4.97;;
6033;SDS011;3045;43.226;27.858;2023-02-01T11:54:22;3.50;;;3.30;;
6033;SDS011;3045;43.226;27.858;2023-02-01T11:57:04;5.03;;;3.27;;
6033;SDS011;3045;43.226;27.858;2023-02-01T11:59:55;4.13;;;3.40;;
6033;SDS011;3045;43.226;27.858;2023-02-01T12:02:38;9.03;;;3.23;;
6033;SDS011;3045;43.226;27.858;2023-02-01T12:05:25;5.93;;;3.37;;
6033;SDS011;3045;43.226;27.858;2023-02-01T12:08:02;3.87;;;3.67;;
6033;SDS011;3045;43.226;27.858;2023-02-01T12:10:51;4.97;;;3.00;;
6033;SDS011;3045;43.226;27.858;2023-02-01T12:13:35;7.47;;;3.90;;
6033;SDS011;3045;43.226;27.858;2023-02-01T12:16:19;3.27;;;3.07;;
6033;SDS011;3045;43.226;27.858;2023-02-01T12:19:11;8.53;;;4.40;;
6033;SDS011;3045;43.226;27.858;2023-02-01T12:21:54;4.97;;;4.27;;
6033;SDS011;3045;43.226;27.858;2023-02-01T12:24:35;7.10;;;3.83;;
6033;SDS011;3045;43.226;27.858;2023-02-01T12:27:21;4.43;;;3.87;;
6033;SDS011;3045;43.226;27.858;2023-02-01T12:30:10;4.00;;;3.70;;
6033;SDS011;3045;43.226;27.858;2023-02-01T12:32:51;9.53;;;4.10;;
6033;SDS011;3045;43.226;27.858;2023-02-01T12:35:36;4.30;;;4.00;;
6033;SDS011;3045;43.226;27.858;2023-02-01T12:38:15;4.50;;;4.10;;
6033;SDS011;3045;43.226;27.858;2023-02-01T12:40:55;3.57;;;3.27;;
6033;SDS011;3045;43.226;27.858;2023-02-01T12:43:36;3.47;;;3.17;;
6033;SDS011;3045;43.226;27.858;2023-02-01T12:46:10;3.20;;;3.00;;
6033;SDS011;3045;43.226;27.858;2023-02-01T12:48:42;3.60;;;3.40;;
6033;SDS011;3045;43.226;27.858;2023-02-01T12:51:17;3.40;;;3.10;;
6033;SDS011;3045;43.226;27.858;2023-02-01T12:53:52;2.80;;;2.70;;
6033;SDS011;3045;43.226;27.858;2023-02-01T12:56:22;2.87;;;2.77;;
6033;SDS011;3045;43.226;27.858;2023-02-01T12:58:55;7.57;;;3.40;;
6033;SDS011;3045;43.226;27.858;2023-02-01T13:01:27;3.43;;;3.13;;
6033;SDS011;3045;43.226;27.858;2023-02-01T13:04:02;7.17;;;4.20;;
6033;SDS011;3045;43.226;27.858;2023-02-01T13:06:38;4.07;;;3.87;;
6033;SDS011;3045;43.226;27.858;2023-02-01T13:09:15;3.40;;;3.10;;
6033;SDS011;3045;43.226;27.858;2023-02-01T13:11:49;3.47;;;3.27;;
6033;SDS011;3045;43.226;27.858;2023-02-01T13:14:23;10.93;;;3.80;;
6033;SDS011;3045;43.226;27.858;2023-02-01T13:16:58;3.43;;;3.23;;
6033;SDS011;3045;43.226;27.858;2023-02-01T13:19:33;4.47;;;3.30;;
6033;SDS011;3045;43.226;27.858;2023-02-01T13:22:10;5.00;;;2.97;;
6033;SDS011;3045;43.226;27.858;2023-02-01T13:24:40;3.73;;;2.90;;
6033;SDS011;3045;43.226;27.858;2023-02-01T13:27:11;5.10;;;2.80;;
6033;SDS011;3045;43.226;27.858;2023-02-01T13:29:44;3.43;;;2.60;;
6033;SDS011;3045;43.226;27.858;2023-02-01T13:32:19;7.63;;;2.30;;
6033;SDS011;3045;43.226;27.858;2023-02-01T13:35:03;3.27;;;3.07;;
6033;SDS011;3045;43.226;27.858;2023-02-01T13:37:59;3.20;;;3.00;;
6033;SDS011;3045;43.226;27.858;2023-02-01T13:40:44;3.07;;;2.83;;
6033;SDS011;3045;43.226;27.858;2023-02-01T13:43:18;3.33;;;3.03;;
6033;SDS011;3045;43.226;27.858;2023-02-01T13:45:51;2.70;;;2.60;;
6033;SDS011;3045;43.226;27.858;2023-02-01T13:48:22;3.47;;;3.27;;
6033;SDS011;3045;43.226;27.858;2023-02-01T13:50:54;3.43;;;3.07;;
6033;SDS011;3045;43.226;27.858;2023-02-01T13:53:23;4.40;;;2.93;;
6033;SDS011;3045;43.226;27.858;2023-02-01T13:55:55;2.90;;;2.80;;
6033;SDS011;3045;43.226;27.858;2023-02-01T13:58:34;2.67;;;2.57;;
6033;SDS011;3045;43.226;27.858;2023-02-01T14:04:00;3.47;;;3.20;;
6033;SDS011;3045;43.226;27.858;2023-02-01T14:06:35;3.10;;;3.00;;
6033;SDS011;3045;43.226;27.858;2023-02-01T14:09:19;4.63;;;2.93;;
6033;SDS011;3045;43.226;27.858;2023-02-01T14:12:04;3.23;;;2.87;;
6033;SDS011;3045;43.226;27.858;2023-02-01T14:18:01;2.97;;;2.80;;
6033;SDS011;3045;43.226;27.858;2023-02-01T14:20:48;3.27;;;3.17;;
6033;SDS011;3045;43.226;27.858;2023-02-01T14:23:23;4.33;;;2.80;;
6033;SDS011;3045;43.226;27.858;2023-02-01T14:26:01;3.37;;;2.90;;
6033;SDS011;3045;43.226;27.858;2023-02-01T14:28:32;3.40;;;3.20;;
6033;SDS011;3045;43.226;27.858;2023-02-01T14:31:13;3.13;;;2.93;;
6033;SDS011;3045;43.226;27.858;2023-02-01T14:33:43;8.03;;;3.23;;
6033;SDS011;3045;43.226;27.858;2023-02-01T14:36:12;4.17;;;3.10;;
6033;SDS011;3045;43.226;27.858;2023-02-01T14:38:46;4.77;;;3.30;;
6033;SDS011;3045;43.226;27.858;2023-02-01T14:41:25;4.30;;;2.93;;
6033;SDS011;3045;43.226;27.858;2023-02-01T14:44:14;3.33;;;2.97;;
6033;SDS011;3045;43.226;27.858;2023-02-01T14:49:58;5.90;;;3.37;;
6033;SDS011;3045;43.226;27.858;2023-02-01T14:52:30;4.03;;;3.73;;
6033;SDS011;3045;43.226;27.858;2023-02-01T14:55:02;7.27;;;3.70;;
6033;SDS011;3045;43.226;27.858;2023-02-01T14:57:33;8.90;;;3.50;;
6033;SDS011;3045;43.226;27.858;2023-02-01T15:00:06;16.80;;;3.70;;
6033;SDS011;3045;43.226;27.858;2023-02-01T15:02:41;3.93;;;3.63;;
6033;SDS011;3045;43.226;27.858;2023-02-01T15:08:07;5.53;;;3.37;;
6033;SDS011;3045;43.226;27.858;2023-02-01T15:10:43;10.43;;;3.87;;
6033;SDS011;3045;43.226;27.858;2023-02-01T15:13:17;5.70;;;3.77;;
6033;SDS011;3045;43.226;27.858;2023-02-01T15:15:59;3.43;;;3.07;;
6033;SDS011;3045;43.226;27.858;2023-02-01T15:18:30;20.33;;;3.87;;
6033;SDS011;3045;43.226;27.858;2023-02-01T15:21:00;8.03;;;4.27;;
6033;SDS011;3045;43.226;27.858;2023-02-01T15:23:28;7.30;;;3.77;;
6033;SDS011;3045;43.226;27.858;2023-02-01T15:25:56;6.93;;;3.87;;
6033;SDS011;3045;43.226;27.858;2023-02-01T15:28:24;4.47;;;4.20;;
6033;SDS011;3045;43.226;27.858;2023-02-01T15:30:52;4.90;;;4.50;;
6033;SDS011;3045;43.226;27.858;2023-02-01T15:33:20;6.50;;;4.63;;
6033;SDS011;3045;43.226;27.858;2023-02-01T15:35:48;5.63;;;5.23;;
6033;SDS011;3045;43.226;27.858;2023-02-01T15:38:21;5.67;;;4.93;;